Time;durP1;ratioP1;P1;durP2;ratioP2;P2;SDS_P1;SDS_P2;PMS_P1;PMS_P2;Temp;Humidity;BMP_temperature;BMP_pressure;BME280_temperature;BME280_humidity;BME280_pressure;Samples;Min_cycle;Max_cycle;Signal;HPM_P1;HPM_P2
2023/04/28 00:01:35;;;;;;;7.13;2.35;;;;;;;;;;4979930;28;20057;-95
2023/04/28 00:04:04;;;;;;;6.78;2.60;;;;;;;;;;4979770;28;20026;-95
2023/04/28 00:06:33;;;;;;;3.35;2.22;;;;;;;;;;4979861;28;20037;-95
2023/04/28 00:09:15;;;;;;;4.30;2.05;;;;;;;;;;4980004;28;20026;-94
2023/04/28 00:11:45;;;;;;;3.28;1.50;;;;;;;;;;4979533;28;20022;-95
2023/04/28 00:14:14;;;;;;;3.13;1.52;;;;;;;;;;4980478;28;20352;-94
2023/04/28 00:16:43;;;;;;;3.85;1.95;;;;;;;;;;4979612;28;20433;-96
2023/04/28 00:19:22;;;;;;;2.78;1.60;;;;;;;;;;4979863;28;20022;-95
2023/04/28 00:21:58;;;;;;;3.42;1.40;;;;;;;;;;4980018;28;20040;-95
2023/04/28 00:24:24;;;;;;;3.47;1.60;;;;;;;;;;4980212;28;20416;-94
2023/04/28 00:26:54;;;;;;;3.88;1.92;;;;;;;;;;4979721;28;20030;-95
2023/04/28 00:29:22;;;;;;;4.25;1.85;;;;;;;;;;4979161;28;20076;-94
2023/04/28 00:31:51;;;;;;;4.25;1.73;;;;;;;;;;4979285;28;20018;-95
2023/04/28 00:34:25;;;;;;;7.13;2.03;;;;;;;;;;4979529;28;20133;-95
2023/04/28 00:36:54;;;;;;;5.35;1.70;;;;;;;;;;4979475;28;20432;-95
2023/04/28 00:39:24;;;;;;;4.00;2.00;;;;;;;;;;4979190;28;20481;-94
2023/04/28 00:41:53;;;;;;;5.25;1.90;;;;;;;;;;4979296;28;20128;-95
2023/04/28 00:44:21;;;;;;;2.92;1.58;;;;;;;;;;4979103;28;20027;-94
2023/04/28 00:46:56;;;;;;;4.55;1.77;;;;;;;;;;4978839;28;20022;-95
2023/04/28 00:49:22;;;;;;;2.90;1.88;;;;;;;;;;4979014;28;20052;-95
2023/04/28 00:52:03;;;;;;;3.75;1.85;;;;;;;;;;4978945;28;20370;-94
2023/04/28 00:54:33;;;;;;;4.63;2.05;;;;;;;;;;4984477;28;20040;-95
2023/04/28 00:57:03;;;;;;;4.13;1.95;;;;;;;;;;4998378;28;20026;-95
2023/04/28 00:59:44;;;;;;;3.78;1.77;;;;;;;;;;4998483;28;20026;-94
2023/04/28 01:02:16;;;;;;;4.45;2.20;;;;;;;;;;4998610;28;20396;-96
2023/04/28 01:04:44;;;;;;;4.47;1.80;;;;;;;;;;4999038;28;20026;-95
2023/04/28 01:07:14;;;;;;;5.07;2.22;;;;;;;;;;4997850;28;20022;-95
2023/04/28 01:09:43;;;;;;;3.65;1.90;;;;;;;;;;4998170;28;20121;-94
2023/04/28 01:12:11;;;;;;;5.78;2.58;;;;;;;;;;4998423;28;20022;-95
2023/04/28 01:14:45;;;;;;;4.05;2.13;;;;;;;;;;4998121;28;20042;-96
2023/04/28 01:17:14;;;;;;;7.88;2.30;;;;;;;;;;4998352;28;20440;-94
2023/04/28 01:19:43;;;;;;;4.68;2.47;;;;;;;;;;4998390;28;20057;-94
2023/04/28 01:22:14;;;;;;;5.35;2.67;;;;;;;;;;4997839;28;20030;-96
2023/04/28 01:24:43;;;;;;;4.68;2.20;;;;;;;;;;4997866;28;20029;-95
2023/04/28 01:27:12;;;;;;;5.30;2.55;;;;;;;;;;4998159;28;20105;-95
2023/04/28 01:30:00;;;;;;;4.10;2.30;;;;;;;;;;4998318;28;20029;-94
2023/04/28 01:32:25;;;;;;;4.72;2.03;;;;;;;;;;5015085;28;20189;-96
2023/04/28 01:34:54;;;;;;;5.55;1.83;;;;;;;;;;4997812;28;20033;-95
2023/04/28 01:37:23;;;;;;;4.47;1.95;;;;;;;;;;4997756;28;20033;-95
2023/04/28 01:39:52;;;;;;;5.07;2.22;;;;;;;;;;4997805;28;20508;-94
2023/04/28 01:42:25;;;;;;;4.38;2.25;;;;;;;;;;4997832;28;20018;-95
2023/04/28 01:44:54;;;;;;;7.63;2.05;;;;;;;;;;4997297;28;20033;-95
2023/04/28 01:47:23;;;;;;;4.15;1.70;;;;;;;;;;4997687;28;20040;-94
2023/04/28 01:49:53;;;;;;;4.63;2.47;;;;;;;;;;4997400;28;20018;-95
2023/04/28 01:52:35;;;;;;;3.78;2.13;;;;;;;;;;4997421;28;20476;-94
2023/04/28 01:55:04;;;;;;;4.35;2.25;;;;;;;;;;4997493;28;20037;-95
2023/04/28 01:57:34;;;;;;;5.05;2.20;;;;;;;;;;4997353;28;20026;-95
2023/04/28 02:00:13;;;;;;;6.78;2.45;;;;;;;;;;4997389;28;20037;-94
2023/04/28 02:02:52;;;;;;;3.60;2.30;;;;;;;;;;4997944;28;20425;-95
2023/04/28 02:05:26;;;;;;;3.92;2.20;;;;;;;;;;4997634;28;20034;-94
2023/04/28 02:07:54;;;;;;;3.67;2.28;;;;;;;;;;4997216;28;20068;-94
2023/04/28 02:10:23;;;;;;;7.30;2.33;;;;;;;;;;4997449;28;20072;-94
2023/04/28 02:15:43;;;;;;;3.70;1.90;;;;;;;;;;5015081;28;20060;-95
2023/04/28 02:18:12;;;;;;;3.88;2.22;;;;;;;;;;4999218;28;20033;-95
2023/04/28 02:20:55;;;;;;;3.95;2.30;;;;;;;;;;5001115;28;20029;-94
2023/04/28 02:23:24;;;;;;;3.50;2.20;;;;;;;;;;5001209;28;20026;-94
2023/04/28 02:28:54;;;;;;;4.22;2.08;;;;;;;;;;5015579;28;20105;-95
2023/04/28 02:31:36;;;;;;;5.63;2.20;;;;;;;;;;5000947;28;20032;-94
2023/04/28 02:34:46;;;;;;;5.03;1.92;;;;;;;;;;5002041;28;20025;-95
2023/04/28 02:37:12;;;;;;;4.93;1.95;;;;;;;;;;5000858;28;20026;-94
2023/04/28 02:40:04;;;;;;;6.70;2.13;;;;;;;;;;5000893;28;20022;-94
2023/04/28 02:42:33;;;;;;;4.55;2.20;;;;;;;;;;4998481;28;20045;-95
2023/04/28 02:45:14;;;;;;;4.70;2.25;;;;;;;;;;5000719;28;20022;-95
2023/04/28 02:47:43;;;;;;;5.07;2.25;;;;;;;;;;5000751;28;20025;-94
2023/04/28 02:50:25;;;;;;;6.90;2.50;;;;;;;;;;5000520;28;20476;-95
2023/04/28 02:52:54;;;;;;;4.65;2.20;;;;;;;;;;5001464;28;20025;-94
2023/04/28 02:55:23;;;;;;;4.10;2.20;;;;;;;;;;5000343;28;20049;-95
2023/04/28 02:58:05;;;;;;;2.40;1.90;;;;;;;;;;5000351;28;20084;-95
2023/04/28 03:00:34;;;;;;;3.97;2.17;;;;;;;;;;5001315;28;20026;-95
2023/04/28 03:03:03;;;;;;;3.17;2.03;;;;;;;;;;5000884;28;20026;-94
2023/04/28 03:05:52;;;;;;;5.43;2.00;;;;;;;;;;5000298;28;20091;-94
2023/04/28 03:08:23;;;;;;;3.30;1.98;;;;;;;;;;4997276;28;20030;-95
2023/04/28 03:10:52;;;;;;;4.80;2.40;;;;;;;;;;5000450;28;20472;-95
2023/04/28 03:13:26;;;;;;;5.13;1.95;;;;;;;;;;5001079;28;20026;-94
2023/04/28 03:19:03;;;;;;;5.13;1.90;;;;;;;;;;5010971;28;20574;-94
2023/04/28 03:21:44;;;;;;;3.10;2.00;;;;;;;;;;5000054;28;20026;-94
2023/04/28 03:24:22;;;;;;;2.97;1.95;;;;;;;;;;4999993;28;20104;-94
2023/04/28 03:26:55;;;;;;;10.00;2.15;;;;;;;;;;5000061;28;20037;-95
2023/04/28 03:29:52;;;;;;;5.90;1.90;;;;;;;;;;4999416;28;20029;-95
2023/04/28 03:32:26;;;;;;;5.35;1.98;;;;;;;;;;4997513;28;20026;-94
2023/04/28 03:34:54;;;;;;;5.40;2.20;;;;;;;;;;5000049;28;20030;-93
2023/04/28 03:37:23;;;;;;;6.93;2.67;;;;;;;;;;4999945;28;20058;-94
2023/04/28 03:39:59;;;;;;;6.13;2.13;;;;;;;;;;5000022;28;20028;-95
2023/04/28 03:42:26;;;;;;;3.80;2.40;;;;;;;;;;4999568;28;20029;-94
2023/04/28 03:44:52;;;;;;;4.05;2.03;;;;;;;;;;4999622;28;20085;-95
2023/04/28 03:47:26;;;;;;;5.07;2.00;;;;;;;;;;5000041;28;20022;-95
2023/04/28 03:50:45;;;;;;;5.80;2.15;;;;;;;;;;4999348;28;20465;-94
2023/04/28 03:53:05;;;;;;;;;;;;;;;;;;5013626;28;20030;-95
2023/04/28 03:55:33;;;;;;;4.40;1.83;;;;;;;;;;4999206;28;19924;-95
2023/04/28 03:58:14;;;;;;;4.50;2.33;;;;;;;;;;4999520;28;20032;-95
2023/04/28 04:00:43;;;;;;;5.20;2.08;;;;;;;;;;5000254;28;20456;-95
2023/04/28 04:03:24;;;;;;;9.23;2.40;;;;;;;;;;4999311;28;20025;-95
2023/04/28 04:05:53;;;;;;;2.80;1.90;;;;;;;;;;4999146;28;20034;-95
2023/04/28 04:08:26;;;;;;;5.53;2.22;;;;;;;;;;4999585;28;20018;-95
2023/04/28 04:10:55;;;;;;;3.63;1.95;;;;;;;;;;4999773;28;20026;-95
2023/04/28 04:13:23;;;;;;;5.15;2.00;;;;;;;;;;4999494;28;20034;-95
2023/04/28 04:16:06;;;;;;;3.83;1.98;;;;;;;;;;4998905;28;20476;-95
2023/04/28 04:18:35;;;;;;;6.85;2.38;;;;;;;;;;4999013;28;20057;-95
2023/04/28 04:21:04;;;;;;;5.10;2.15;;;;;;;;;;4999757;28;20026;-96
2023/04/28 04:23:32;;;;;;;4.13;1.75;;;;;;;;;;4999872;28;20112;-95
2023/04/28 04:26:06;;;;;;;2.85;1.90;;;;;;;;;;4999077;28;20026;-94
2023/04/28 04:28:35;;;;;;;4.47;1.70;;;;;;;;;;4998864;28;20022;-95
2023/04/28 04:31:04;;;;;;;4.47;1.65;;;;;;;;;;4998750;28;20014;-95
2023/04/28 04:33:33;;;;;;;4.30;2.00;;;;;;;;;;4998935;28;20500;-95
2023/04/28 04:36:02;;;;;;;4.28;2.10;;;;;;;;;;4998942;28;20026;-94
2023/04/28 04:38:36;;;;;;;4.90;2.50;;;;;;;;;;4998330;28;20079;-95
2023/04/28 04:41:02;;;;;;;4.13;2.20;;;;;;;;;;4998047;28;20025;-96
2023/04/28 04:43:35;;;;;;;2.33;1.67;;;;;;;;;;4998498;28;20119;-95
2023/04/28 04:46:04;;;;;;;3.08;1.95;;;;;;;;;;4999048;28;20384;-95
2023/04/28 04:48:33;;;;;;;4.43;2.00;;;;;;;;;;4998670;28;20483;-95
2023/04/28 04:51:23;;;;;;;7.57;2.63;;;;;;;;;;4998877;28;20026;-95
2023/04/28 04:53:56;;;;;;;9.82;3.08;;;;;;;;;;4995111;28;20034;-95
2023/04/28 04:56:25;;;;;;;9.18;2.88;;;;;;;;;;4998094;28;20034;-94
2023/04/28 04:58:54;;;;;;;6.97;2.97;;;;;;;;;;4998211;28;20033;-95
2023/04/28 05:01:36;;;;;;;6.82;3.08;;;;;;;;;;4998465;28;20464;-95
2023/04/28 05:04:05;;;;;;;9.13;2.42;;;;;;;;;;4997918;28;20091;-96
2023/04/28 05:06:33;;;;;;;5.25;2.42;;;;;;;;;;4998067;28;20507;-95
2023/04/28 05:09:12;;;;;;;5.20;3.00;;;;;;;;;;4998183;28;20105;-96
2023/04/28 05:11:46;;;;;;;5.05;2.05;;;;;;;;;;4998070;28;20093;-96
2023/04/28 05:14:15;;;;;;;4.93;2.20;;;;;;;;;;4998080;28;20465;-95
2023/04/28 05:16:44;;;;;;;6.72;2.55;;;;;;;;;;4997797;28;20117;-95
2023/04/28 05:19:13;;;;;;;5.65;2.88;;;;;;;;;;4997966;28;20030;-95
2023/04/28 05:21:57;;;;;;;7.53;2.67;;;;;;;;;;4997702;28;20507;-96
2023/04/28 05:24:23;;;;;;;6.32;2.33;;;;;;;;;;4999516;28;20113;-96
2023/04/28 05:27:06;;;;;;;7.75;2.42;;;;;;;;;;4998104;28;20045;-94
2023/04/28 05:29:35;;;;;;;6.40;3.00;;;;;;;;;;4997398;28;20113;-94
2023/04/28 05:32:04;;;;;;;6.10;2.22;;;;;;;;;;4997728;28;20052;-94
2023/04/28 05:34:33;;;;;;;6.72;2.25;;;;;;;;;;4997378;28;20037;-95
2023/04/28 05:37:04;;;;;;;6.63;2.90;;;;;;;;;;4997523;28;20033;-94
2023/04/28 05:39:33;;;;;;;6.30;2.40;;;;;;;;;;4997451;28;20110;-95
2023/04/28 05:42:16;;;;;;;4.70;2.35;;;;;;;;;;4997376;28;20022;-96
2023/04/28 05:44:42;;;;;;;5.07;2.30;;;;;;;;;;4997522;28;20026;-95
2023/04/28 05:47:23;;;;;;;4.70;2.75;;;;;;;;;;4997735;28;20026;-95
2023/04/28 05:49:56;;;;;;;7.03;2.20;;;;;;;;;;4997593;28;20019;-94
2023/04/28 05:52:25;;;;;;;6.78;2.30;;;;;;;;;;4997677;28;20036;-96
2023/04/28 05:54:54;;;;;;;8.15;2.85;;;;;;;;;;4997435;28;20046;-96
2023/04/28 05:57:26;;;;;;;8.38;2.63;;;;;;;;;;4997683;28;20045;-96
2023/04/28 05:59:55;;;;;;;8.63;2.35;;;;;;;;;;4997164;28;20068;-95
2023/04/28 06:02:24;;;;;;;7.18;3.00;;;;;;;;;;4997064;28;20057;-95
2023/04/28 06:04:53;;;;;;;5.30;2.25;;;;;;;;;;4997091;28;20060;-94
2023/04/28 06:07:36;;;;;;;4.55;2.17;;;;;;;;;;4997191;28;20033;-94
2023/04/28 06:10:05;;;;;;;5.53;2.67;;;;;;;;;;4997376;28;20384;-96
2023/04/28 06:12:33;;;;;;;5.20;2.13;;;;;;;;;;4997985;28;20034;-95
2023/04/28 06:17:46;;;;;;;4.38;2.30;;;;;;;;;;5014336;28;20026;-96
2023/04/28 06:20:15;;;;;;;6.75;2.10;;;;;;;;;;4996966;28;20374;-95
2023/04/28 06:22:44;;;;;;;5.88;2.80;;;;;;;;;;4997851;28;20076;-94
2023/04/28 06:25:13;;;;;;;4.95;2.10;;;;;;;;;;4997989;28;20036;-96
2023/04/28 06:27:47;;;;;;;5.43;2.90;;;;;;;;;;4997710;28;20076;-96
2023/04/28 06:30:22;;;;;;;9.15;2.33;;;;;;;;;;4997904;28;20030;-96
2023/04/28 06:32:56;;;;;;;5.18;2.13;;;;;;;;;;4997197;28;20484;-94
2023/04/28 06:35:25;;;;;;;6.90;2.20;;;;;;;;;;4997751;28;20022;-95
2023/04/28 06:37:54;;;;;;;4.53;1.90;;;;;;;;;;4997590;28;20026;-96
2023/04/28 06:40:23;;;;;;;5.00;2.00;;;;;;;;;;4997214;28;20057;-95
2023/04/28 06:42:56;;;;;;;7.60;2.25;;;;;;;;;;4997060;28;20392;-96
2023/04/28 06:45:25;;;;;;;4.15;2.05;;;;;;;;;;4996859;28;20029;-95
2023/04/28 06:47:54;;;;;;;3.67;1.80;;;;;;;;;;4996993;28;20022;-94
2023/04/28 06:50:35;;;;;;;3.88;2.00;;;;;;;;;;4996775;28;20022;-95
2023/04/28 06:53:04;;;;;;;2.97;1.88;;;;;;;;;;4997006;28;20022;-94
2023/04/28 06:55:45;;;;;;;5.85;2.13;;;;;;;;;;4996668;28;20053;-96
2023/04/28 06:58:14;;;;;;;3.72;2.15;;;;;;;;;;4997165;28;20045;-95
2023/04/28 07:00:53;;;;;;;3.92;1.88;;;;;;;;;;4996514;28;20021;-96
2023/04/28 07:03:27;;;;;;;2.75;1.75;;;;;;;;;;4996948;28;20484;-95
2023/04/28 07:05:55;;;;;;;4.20;1.70;;;;;;;;;;5000275;28;20126;-95
2023/04/28 07:08:24;;;;;;;9.50;2.42;;;;;;;;;;5000315;28;20112;-95
2023/04/28 07:11:05;;;;;;;4.22;2.65;;;;;;;;;;5000372;28;20029;-95
2023/04/28 07:13:35;;;;;;;6.57;2.83;;;;;;;;;;5000229;28;20030;-95
2023/04/28 07:16:03;;;;;;;3.55;2.13;;;;;;;;;;5000022;28;20167;-95
2023/04/28 07:18:33;;;;;;;3.97;2.10;;;;;;;;;;4999907;28;20037;-96
2023/04/28 07:21:17;;;;;;;3.75;2.22;;;;;;;;;;5000176;28;20092;-96
2023/04/28 07:23:45;;;;;;;4.63;2.38;;;;;;;;;;4999703;28;20026;-96
2023/04/28 07:26:15;;;;;;;4.22;2.40;;;;;;;;;;4999954;28;20026;-95
2023/04/28 07:28:44;;;;;;;3.47;2.38;;;;;;;;;;4999933;28;20022;-94
2023/04/28 07:31:25;;;;;;;6.00;3.22;;;;;;;;;;5000029;28;20025;-96
2023/04/28 07:33:54;;;;;;;7.70;2.85;;;;;;;;;;5000515;28;20457;-95
2023/04/28 07:36:35;;;;;;;7.25;3.50;;;;;;;;;;5000602;28;20396;-96
2023/04/28 07:39:13;;;;;;;6.68;3.40;;;;;;;;;;4999377;28;20427;-96
2023/04/28 07:41:47;;;;;;;5.80;2.88;;;;;;;;;;5000764;28;20463;-95
2023/04/28 07:44:16;;;;;;;7.18;4.50;;;;;;;;;;4999570;28;20376;-96
2023/04/28 07:46:44;;;;;;;5.53;2.78;;;;;;;;;;4999546;28;20034;-96
2023/04/28 07:49:27;;;;;;;3.70;2.13;;;;;;;;;;4999312;28;20021;-96
2023/04/28 07:51:56;;;;;;;5.10;2.40;;;;;;;;;;4999910;28;20484;-96
2023/04/28 07:54:24;;;;;;;5.38;2.10;;;;;;;;;;4999116;28;20097;-95
2023/04/28 07:57:17;;;;;;;13.10;3.15;;;;;;;;;;4999664;28;20025;-95
2023/04/28 07:59:43;;;;;;;5.85;2.40;;;;;;;;;;4999582;28;20476;-95
2023/04/28 08:02:19;;;;;;;6.22;2.60;;;;;;;;;;4999221;28;20117;-95
2023/04/28 08:04:45;;;;;;;9.20;3.30;;;;;;;;;;4999137;28;20432;-95
2023/04/28 08:07:14;;;;;;;6.43;2.60;;;;;;;;;;4999245;28;20038;-96
2023/04/28 08:09:42;;;;;;;10.00;2.42;;;;;;;;;;4999152;28;20029;-95
2023/04/28 08:15:07;;;;;;;4.13;2.20;;;;;;;;;;5009295;28;20037;-95
2023/04/28 08:17:33;;;;;;;6.20;2.42;;;;;;;;;;4998809;28;20116;-96
2023/04/28 08:20:18;;;;;;;6.35;3.17;;;;;;;;;;4999192;28;20022;-95
2023/04/28 08:22:44;;;;;;;6.07;2.47;;;;;;;;;;4998651;28;20060;-96
2023/04/28 08:25:25;;;;;;;4.63;2.25;;;;;;;;;;4999342;28;20072;-94
2023/04/28 08:27:54;;;;;;;4.68;2.25;;;;;;;;;;4998820;28;20029;-96
2023/04/28 08:30:33;;;;;;;4.57;2.30;;;;;;;;;;4998721;28;20022;-96
2023/04/28 08:33:27;;;;;;;5.20;2.38;;;;;;;;;;4998552;28;20026;-95
2023/04/28 08:35:56;;;;;;;3.80;2.00;;;;;;;;;;4996181;28;20034;-96
2023/04/28 08:38:24;;;;;;;5.50;2.53;;;;;;;;;;4998555;28;20026;-96
2023/04/28 08:40:56;;;;;;;6.15;2.45;;;;;;;;;;4998736;28;20366;-96
2023/04/28 08:43:27;;;;;;;4.00;1.95;;;;;;;;;;4998654;28;20033;-96
2023/04/28 08:45:56;;;;;;;5.05;2.13;;;;;;;;;;4998410;28;20034;-96
2023/04/28 08:48:25;;;;;;;5.35;2.17;;;;;;;;;;4998917;28;20484;-95
2023/04/28 08:50:54;;;;;;;6.15;2.30;;;;;;;;;;4998596;28;20025;-95
2023/04/28 08:53:26;;;;;;;4.18;2.20;;;;;;;;;;4998163;28;20049;-95
2023/04/28 08:55:57;;;;;;;4.90;2.15;;;;;;;;;;4998352;28;20392;-96
2023/04/28 08:58:27;;;;;;;6.85;2.05;;;;;;;;;;4998166;28;20079;-96
2023/04/28 09:00:56;;;;;;;4.38;2.17;;;;;;;;;;4998212;28;20088;-96
2023/04/28 09:03:26;;;;;;;3.88;2.22;;;;;;;;;;4997691;28;20041;-95
2023/04/28 09:05:55;;;;;;;4.65;2.03;;;;;;;;;;4997736;28;20037;-96
2023/04/28 09:08:37;;;;;;;6.53;2.33;;;;;;;;;;4998905;28;20129;-96
2023/04/28 09:11:13;;;;;;;5.32;2.40;;;;;;;;;;4997825;28;20026;-96
2023/04/28 09:13:47;;;;;;;3.22;2.03;;;;;;;;;;4997450;28;20053;-94
2023/04/28 09:16:16;;;;;;;6.47;2.10;;;;;;;;;;4998016;28;20034;-96
2023/04/28 09:18:56;;;;;;;4.95;1.95;;;;;;;;;;4997851;28;20030;-96
2023/04/28 09:21:24;;;;;;;6.03;2.33;;;;;;;;;;4997770;28;20480;-96
2023/04/28 09:24:05;;;;;;;3.10;2.00;;;;;;;;;;4997591;28;20025;-96
2023/04/28 09:26:49;;;;;;;6.07;2.22;;;;;;;;;;4997182;28;20026;-96
2023/04/28 09:29:15;;;;;;;5.10;1.90;;;;;;;;;;4998435;28;20022;-96
2023/04/28 09:32:05;;;;;;;2.95;1.67;;;;;;;;;;4997550;28;20034;-96
2023/04/28 09:35:10;;;;;;;;;;;;;;;;;;;;;
2023/04/28 09:37:46;;;;;;;5.05;2.20;;;;;;;;;;5013401;28;20407;-96
2023/04/28 09:40:15;;;;;;;3.85;2.00;;;;;;;;;;4998050;28;20033;-96
2023/04/28 09:42:45;;;;;;;6.38;2.22;;;;;;;;;;4997524;28;20029;-96
2023/04/28 09:45:15;;;;;;;5.32;1.92;;;;;;;;;;4997641;28;20361;-96
2023/04/28 09:47:46;;;;;;;4.75;2.03;;;;;;;;;;4997620;28;20026;-96
2023/04/28 09:50:17;;;;;;;3.90;1.92;;;;;;;;;;4998646;28;20518;-95
2023/04/28 09:53:17;;;;;;;3.40;1.75;;;;;;;;;;4997881;28;20029;-96
2023/04/28 09:55:46;;;;;;;8.27;2.20;;;;;;;;;;4992366;28;20050;-96
2023/04/28 09:58:16;;;;;;;4.80;1.85;;;;;;;;;;4997356;28;20022;-96
2023/04/28 10:00:45;;;;;;;4.43;2.60;;;;;;;;;;4997606;28;20117;-96
2023/04/28 10:03:15;;;;;;;4.55;1.73;;;;;;;;;;4997284;28;20034;-95
2023/04/28 10:05:56;;;;;;;4.15;1.98;;;;;;;;;;4997669;28;20101;-96
2023/04/28 10:11:16;;;;;;;3.33;2.28;;;;;;;;;;4986785;28;20376;-95
2023/04/28 10:13:44;;;;;;;3.78;2.10;;;;;;;;;;4997229;28;20026;-95
2023/04/28 10:16:14;;;;;;;5.85;2.20;;;;;;;;;;4997516;28;20044;-96
2023/04/28 10:18:43;;;;;;;4.00;2.05;;;;;;;;;;4997013;28;20055;-96
2023/04/28 10:24:17;;;;;;;5.95;2.72;;;;;;;;;;5004164;28;20030;-96
2023/04/28 10:27:05;;;;;;;4.32;2.30;;;;;;;;;;4997651;28;20030;-96
2023/04/28 10:29:34;;;;;;;10.35;2.70;;;;;;;;;;4997518;28;20473;-96
2023/04/28 10:32:27;;;;;;;6.53;2.60;;;;;;;;;;4996652;28;20124;-96
2023/04/28 10:35:13;;;;;;;7.95;3.17;;;;;;;;;;4997157;28;20034;-96
2023/04/28 10:38:07;;;;;;;4.43;2.55;;;;;;;;;;4997007;28;20037;-96
2023/04/28 10:40:45;;;;;;;5.75;2.90;;;;;;;;;;5000891;28;20083;-96
2023/04/28 10:43:36;;;;;;;5.40;2.65;;;;;;;;;;5001139;28;20068;-95
2023/04/28 10:46:05;;;;;;;3.50;2.70;;;;;;;;;;5001005;28;20117;-95
2023/04/28 10:48:38;;;;;;;8.00;2.63;;;;;;;;;;5000493;28;20041;-96
2023/04/28 10:51:05;;;;;;;5.40;2.30;;;;;;;;;;5000552;28;20025;-95
2023/04/28 10:53:44;;;;;;;4.40;2.65;;;;;;;;;;5000612;28;20033;-96
2023/04/28 10:56:36;;;;;;;10.25;2.58;;;;;;;;;;5000115;28;20048;-95
2023/04/28 10:59:26;;;;;;;5.70;2.38;;;;;;;;;;5000766;28;20033;-96
2023/04/28 11:01:54;;;;;;;3.85;2.60;;;;;;;;;;5000985;28;20030;-96
2023/04/28 11:04:37;;;;;;;5.70;3.08;;;;;;;;;;5000107;28;20030;-96
2023/04/28 11:07:35;;;;;;;7.20;2.67;;;;;;;;;;5000877;28;20029;-96
2023/04/28 11:10:16;;;;;;;7.03;2.58;;;;;;;;;;5000290;28;20026;-96
2023/04/28 11:13:03;;;;;;;4.43;2.67;;;;;;;;;;5000407;28;20026;-96
2023/04/28 11:15:37;;;;;;;3.42;2.33;;;;;;;;;;5000096;28;20064;-96
2023/04/28 11:18:24;;;;;;;4.93;2.10;;;;;;;;;;4999869;28;20026;-96
2023/04/28 11:20:55;;;;;;;7.78;2.53;;;;;;;;;;4999775;28;20034;-95
2023/04/28 11:23:24;;;;;;;10.80;2.90;;;;;;;;;;4999927;28;20025;-96
2023/04/28 11:25:57;;;;;;;6.70;2.45;;;;;;;;;;5000583;28;20026;-95
2023/04/28 11:28:55;;;;;;;3.92;2.20;;;;;;;;;;4999738;28;20025;-96
2023/04/28 11:31:25;;;;;;;7.88;2.50;;;;;;;;;;4992303;28;20034;-95
2023/04/28 11:33:56;;;;;;;5.65;2.70;;;;;;;;;;4999996;28;20105;-96
2023/04/28 11:36:26;;;;;;;5.90;2.20;;;;;;;;;;5000831;28;20026;-95
2023/04/28 11:38:56;;;;;;;4.23;2.53;;;;;;;;;;5004034;28;20022;-96
2023/04/28 11:41:25;;;;;;;5.47;2.65;;;;;;;;;;5008290;28;20121;-96
2023/04/28 11:44:17;;;;;;;;;;;;;;;;;;;;;
2023/04/28 11:46:49;;;;;;;;;;;;;;;;;;5026622;28;20094;-96
2023/04/28 11:49:57;;;;;;;9.65;2.97;;;;;;;;;;5016776;28;19952;-96
2023/04/28 11:52:26;;;;;;;5.53;2.55;;;;;;;;;;5002947;28;20026;-96
2023/04/28 11:55:06;;;;;;;4.07;2.10;;;;;;;;;;5032721;28;20044;-96
2023/04/28 11:57:44;;;;;;;5.43;2.15;;;;;;;;;;5019584;28;20108;-96
2023/04/28 12:00:27;;;;;;;5.65;2.30;;;;;;;;;;5000584;23;20101;-76
2023/04/28 12:02:54;;;;;;;5.03;2.05;;;;;;;;;;4980616;28;20033;-76
2023/04/28 12:05:21;;;;;;;3.83;2.20;;;;;;;;;;4999158;28;20022;-73
2023/04/28 12:07:47;;;;;;;5.63;2.33;;;;;;;;;;5003618;28;20037;-77
2023/04/28 12:10:15;;;;;;;4.40;2.25;;;;;;;;;;5000107;28;20022;-76
2023/04/28 12:12:41;;;;;;;5.47;2.00;;;;;;;;;;4998849;28;20030;-75
2023/04/28 12:15:08;;;;;;;3.42;1.88;;;;;;;;;;4980316;28;20036;-77
2023/04/28 12:17:35;;;;;;;4.93;1.90;;;;;;;;;;5005318;28;20026;-76
2023/04/28 12:20:08;;;;;;;7.55;2.20;;;;;;;;;;4996852;28;20133;-77
2023/04/28 12:22:44;;;;;;;4.97;2.40;;;;;;;;;;4989002;28;20026;-74
2023/04/28 12:25:11;;;;;;;9.38;2.78;;;;;;;;;;4990028;28;20026;-73
2023/04/28 12:27:39;;;;;;;4.15;2.30;;;;;;;;;;5003181;28;20065;-78
2023/04/28 12:30:20;;;;;;;6.00;2.40;;;;;;;;;;4994541;28;20037;-76
2023/04/28 12:32:47;;;;;;;6.03;2.63;;;;;;;;;;4982001;28;20471;-76
2023/04/28 12:35:13;;;;;;;4.13;2.20;;;;;;;;;;4990490;28;20432;-75
2023/04/28 12:37:40;;;;;;;3.30;2.13;;;;;;;;;;5001873;28;20119;-77
2023/04/28 12:40:06;;;;;;;3.55;2.10;;;;;;;;;;4990255;28;20490;-77
2023/04/28 12:42:33;;;;;;;5.50;2.03;;;;;;;;;;4998367;28;20104;-76
2023/04/28 12:44:59;;;;;;;3.97;2.33;;;;;;;;;;4998950;28;20018;-77
2023/04/28 12:47:25;;;;;;;5.22;1.92;;;;;;;;;;5003942;28;20190;-75
2023/04/28 12:49:52;;;;;;;5.43;2.15;;;;;;;;;;4997343;28;20853;-76
2023/04/28 12:52:21;;;;;;;3.58;1.83;;;;;;;;;;4998987;28;20087;-76
2023/04/28 12:54:48;;;;;;;5.35;1.58;;;;;;;;;;4999022;28;20024;-75
2023/04/28 12:57:15;;;;;;;3.45;1.90;;;;;;;;;;4995207;28;20034;-76
2023/04/28 12:59:41;;;;;;;4.07;2.40;;;;;;;;;;5002139;28;20100;-76
2023/04/28 13:02:08;;;;;;;3.90;1.98;;;;;;;;;;5002643;28;20507;-77
2023/04/28 13:04:34;;;;;;;2.92;1.70;;;;;;;;;;4974805;28;20712;-78
2023/04/28 13:07:01;;;;;;;3.08;1.50;;;;;;;;;;4987623;28;20034;-75
2023/04/28 13:09:27;;;;;;;3.10;1.80;;;;;;;;;;5002594;28;20050;-76
2023/04/28 13:11:53;;;;;;;4.88;2.05;;;;;;;;;;5003115;28;20515;-76
2023/04/28 13:14:20;;;;;;;3.70;1.70;;;;;;;;;;4997180;28;20105;-75
2023/04/28 13:16:46;;;;;;;3.42;1.92;;;;;;;;;;5000236;28;20125;-76
2023/04/28 13:19:13;;;;;;;4.15;1.90;;;;;;;;;;4997943;28;20030;-75
2023/04/28 13:21:42;;;;;;;5.25;2.15;;;;;;;;;;5002526;28;20034;-75
2023/04/28 13:24:09;;;;;;;3.63;1.80;;;;;;;;;;4996910;28;20341;-75
2023/04/28 13:26:36;;;;;;;3.28;2.00;;;;;;;;;;5000459;28;20398;-76
2023/04/28 13:29:03;;;;;;;5.43;2.47;;;;;;;;;;4996117;28;20124;-76
2023/04/28 13:31:29;;;;;;;5.75;2.30;;;;;;;;;;5000436;28;20030;-76
2023/04/28 13:33:56;;;;;;;6.25;2.50;;;;;;;;;;4981938;28;20057;-77
2023/04/28 13:36:22;;;;;;;5.25;2.10;;;;;;;;;;4994483;28;20113;-77
2023/04/28 13:38:49;;;;;;;4.78;2.50;;;;;;;;;;5000843;28;20104;-77
2023/04/28 13:41:18;;;;;;;3.60;2.28;;;;;;;;;;5000069;28;20097;-77
2023/04/28 13:43:44;;;;;;;6.45;2.40;;;;;;;;;;4997350;28;20050;-76
2023/04/28 13:46:10;;;;;;;6.90;2.22;;;;;;;;;;5001644;28;20394;-76
2023/04/28 13:48:37;;;;;;;3.65;2.00;;;;;;;;;;4996878;28;20026;-77
2023/04/28 13:51:04;;;;;;;6.18;2.05;;;;;;;;;;4997077;28;20445;-76
2023/04/28 13:53:30;;;;;;;4.55;1.92;;;;;;;;;;4997805;28;20024;-75
2023/04/28 13:55:57;;;;;;;3.15;1.92;;;;;;;;;;4988556;28;20618;-75
2023/04/28 13:58:26;;;;;;;3.47;1.73;;;;;;;;;;4995520;28;20026;-75
2023/04/28 14:00:53;;;;;;;8.07;2.75;;;;;;;;;;4997026;28;20136;-78
2023/04/28 14:03:21;;;;;;;4.90;2.17;;;;;;;;;;4996577;28;20420;-76
2023/04/28 14:05:48;;;;;;;2.88;2.08;;;;;;;;;;4996912;28;20062;-76
2023/04/28 14:08:15;;;;;;;3.53;1.95;;;;;;;;;;5000730;28;20466;-75
2023/04/28 14:10:41;;;;;;;6.38;2.50;;;;;;;;;;5001835;28;20514;-76
2023/04/28 14:13:07;;;;;;;2.63;1.80;;;;;;;;;;5004165;28;20026;-76
2023/04/28 14:15:34;;;;;;;4.05;2.22;;;;;;;;;;5001273;28;20018;-76
2023/04/28 14:18:00;;;;;;;6.45;2.30;;;;;;;;;;5007172;28;20076;-75
2023/04/28 14:20:27;;;;;;;3.88;1.77;;;;;;;;;;5001838;28;20024;-76
2023/04/28 14:22:53;;;;;;;4.68;2.15;;;;;;;;;;5005646;28;20033;-75
2023/04/28 14:25:19;;;;;;;3.65;1.70;;;;;;;;;;4995483;28;20017;-75
2023/04/28 14:27:47;;;;;;;4.65;2.20;;;;;;;;;;5005924;28;20191;-75
2023/04/28 14:30:13;;;;;;;6.40;2.20;;;;;;;;;;4996063;28;20049;-75
2023/04/28 14:32:40;;;;;;;5.47;2.10;;;;;;;;;;5005150;28;20552;-76
2023/04/28 14:35:07;;;;;;;3.85;1.77;;;;;;;;;;5004418;28;20018;-76
2023/04/28 14:37:34;;;;;;;4.72;2.30;;;;;;;;;;5002513;28;20389;-76
2023/04/28 14:40:00;;;;;;;2.88;2.03;;;;;;;;;;5000494;28;20022;-75
2023/04/28 14:42:31;;;;;;;5.30;2.80;;;;;;;;;;5003015;28;20037;-76
2023/04/28 14:44:57;;;;;;;5.43;2.58;;;;;;;;;;4995932;28;20772;-75
2023/04/28 14:47:24;;;;;;;5.57;2.50;;;;;;;;;;5004355;28;20121;-76
2023/04/28 14:49:53;;;;;;;4.65;2.03;;;;;;;;;;4999928;28;20022;-75
2023/04/28 14:52:27;;;;;;;5.60;2.35;;;;;;;;;;5003527;28;20900;-76
2023/04/28 14:54:54;;;;;;;4.93;2.47;;;;;;;;;;5001615;28;20048;-76
2023/04/28 14:57:20;;;;;;;4.13;2.13;;;;;;;;;;4999565;28;20021;-75
2023/04/28 14:59:47;;;;;;;6.38;2.20;;;;;;;;;;5003591;28;20050;-75
2023/04/28 15:02:13;;;;;;;3.58;2.08;;;;;;;;;;4985755;28;20038;-75
2023/04/28 15:04:39;;;;;;;7.05;2.35;;;;;;;;;;5003159;28;20378;-75
2023/04/28 15:07:09;;;;;;;8.27;3.28;;;;;;;;;;4988011;28;20641;-75
2023/04/28 15:09:35;;;;;;;5.72;2.50;;;;;;;;;;4999338;28;20033;-77
2023/04/28 15:12:02;;;;;;;6.72;2.55;;;;;;;;;;5001342;28;20542;-75
2023/04/28 15:14:29;;;;;;;3.65;2.33;;;;;;;;;;4997460;28;20026;-75
2023/04/28 15:16:55;;;;;;;4.63;2.17;;;;;;;;;;5002369;28;20033;-77
2023/04/28 15:19:21;;;;;;;4.65;2.33;;;;;;;;;;5001046;28;20057;-75
2023/04/28 15:21:47;;;;;;;4.90;2.33;;;;;;;;;;4995820;28;20062;-74
2023/04/28 15:24:15;;;;;;;5.10;2.20;;;;;;;;;;4999755;28;20022;-75
2023/04/28 15:26:41;;;;;;;3.40;2.50;;;;;;;;;;5004152;28;20033;-77
2023/04/28 15:29:10;;;;;;;6.50;2.38;;;;;;;;;;5002180;28;20081;-75
2023/04/28 15:31:36;;;;;;;6.55;2.40;;;;;;;;;;4998679;28;20533;-75
2023/04/28 15:34:02;;;;;;;3.58;2.13;;;;;;;;;;5003126;28;20104;-75
2023/04/28 15:36:29;;;;;;;4.93;2.10;;;;;;;;;;5002531;28;20038;-75